Time;durP1;ratioP1;P1;durP2;ratioP2;P2;SDS_P1;SDS_P2;PMS_P1;PMS_P2;Temp;Humidity;BMP_temperature;BMP_pressure;BME280_temperature;BME280_humidity;BME280_pressure;Samples;Min_cycle;Max_cycle;Signal;HPM_P1;HPM_P2
2021/05/19 00:00:18;;;;;;;2.72;2.42;;;10.50;97.20;;;;;;2057043;28;20081;-71
2021/05/19 00:01:18;;;;;;;2.50;2.30;;;10.50;97.30;;;;;;2048354;29;20031;-71
2021/05/19 00:02:19;;;;;;;3.03;2.17;;;10.50;97.20;;;;;;2048409;29;20494;-71
2021/05/19 00:03:19;;;;;;;2.40;2.20;;;10.50;97.20;;;;;;2056984;28;20121;-70
2021/05/19 00:04:20;;;;;;;2.13;1.92;;;10.50;97.30;;;;;;2056976;28;20364;-71
2021/05/19 00:05:21;;;;;;;3.03;2.10;;;10.60;97.40;;;;;;2056983;28;20114;-70
2021/05/19 00:06:21;;;;;;;2.00;1.90;;;10.60;97.40;;;;;;2048109;29;20027;-70
2021/05/19 00:07:22;;;;;;;2.72;2.05;;;10.60;97.40;;;;;;2048449;29;20023;-70
2021/05/19 00:08:22;;;;;;;2.28;2.08;;;10.60;97.30;;;;;;2057085;28;20033;-70
2021/05/19 00:09:23;;;;;;;2.30;2.10;;;10.60;97.30;;;;;;2056827;28;20031;-70
2021/05/19 00:10:24;;;;;;;2.40;2.20;;;10.60;97.20;;;;;;2057050;28;20077;-70
2021/05/19 00:11:25;;;;;;;2.28;1.90;;;10.60;97.20;;;;;;2057018;28;20891;-71
2021/05/19 00:12:25;;;;;;;2.38;2.17;;;10.60;97.30;;;;;;2056844;28;20106;-71
2021/05/19 00:13:29;;;;;;;2.88;2.25;;;10.60;97.30;;;;;;2057094;28;20114;-71
2021/05/19 00:14:30;;;;;;;2.47;2.28;;;10.60;97.40;;;;;;2056971;28;20058;-70
2021/05/19 00:15:31;;;;;;;3.75;2.10;;;10.60;97.50;;;;;;2056923;28;20493;-70
2021/05/19 00:16:31;;;;;;;2.33;2.10;;;10.60;97.40;;;;;;2056720;28;20022;-71
2021/05/19 00:17:45;;;;;;;2.00;1.80;;;10.60;97.40;;;;;;2048260;29;20019;-70
2021/05/19 00:18:46;;;;;;;2.17;1.98;;;10.60;97.40;;;;;;2050188;28;20019;-71
2021/05/19 00:19:47;;;;;;;2.10;1.92;;;10.60;97.40;;;;;;2056930;28;20027;-71
2021/05/19 00:20:47;;;;;;;2.30;1.98;;;10.60;97.50;;;;;;2057129;28;20035;-71
2021/05/19 00:21:48;;;;;;;2.58;2.28;;;10.60;97.40;;;;;;2056886;28;20202;-71
2021/05/19 00:22:49;;;;;;;2.38;2.00;;;10.70;97.50;;;;;;2047518;29;20041;-72
2021/05/19 00:23:50;;;;;;;2.50;1.90;;;10.70;97.30;;;;;;2047451;29;20031;-72
2021/05/19 00:24:50;;;;;;;2.38;2.03;;;10.70;97.10;;;;;;2047564;28;20113;-72
2021/05/19 00:25:51;;;;;;;2.67;1.90;;;10.60;97.00;;;;;;2047492;29;20031;-72
2021/05/19 00:26:52;;;;;;;2.03;1.90;;;10.70;97.10;;;;;;2047448;29;20509;-71
2021/05/19 00:27:54;;;;;;;1.95;1.75;;;10.70;97.00;;;;;;2056164;28;20170;-73
2021/05/19 00:28:56;;;;;;;2.10;1.90;;;10.70;96.90;;;;;;2063342;28;20790;-71
2021/05/19 00:29:56;;;;;;;2.22;2.03;;;10.70;97.00;;;;;;2055484;28;20118;-71
2021/05/19 00:31:00;;;;;;;2.10;1.90;;;10.70;96.70;;;;;;2047596;29;20518;-71
2021/05/19 00:32:00;;;;;;;3.05;2.13;;;10.70;96.40;;;;;;2047872;28;20082;-72
2021/05/19 00:33:01;;;;;;;2.20;2.00;;;10.70;96.10;;;;;;2055910;28;20181;-72
2021/05/19 00:34:02;;;;;;;2.63;2.00;;;10.70;96.30;;;;;;2047399;29;20094;-72
2021/05/19 00:35:03;;;;;;;2.40;2.10;;;10.80;96.30;;;;;;2047356;29;20522;-72
2021/05/19 00:36:04;;;;;;;2.75;2.10;;;10.70;96.00;;;;;;2047159;28;20110;-71
2021/05/19 00:37:05;;;;;;;2.50;2.30;;;10.80;96.00;;;;;;2055809;28;20061;-72
2021/05/19 00:38:05;;;;;;;2.22;2.00;;;10.80;96.10;;;;;;2055911;28;20751;-71
2021/05/19 00:39:08;;;;;;;2.10;2.00;;;10.80;96.00;;;;;;2055976;28;20106;-71
2021/05/19 00:40:10;;;;;;;2.50;2.30;;;10.80;95.90;;;;;;2056157;28;20471;-71
2021/05/19 00:41:12;;;;;;;2.85;2.25;;;10.80;95.70;;;;;;2055985;28;20454;-71
2021/05/19 00:42:14;;;;;;;2.20;2.00;;;10.80;95.60;;;;;;2056055;28;20031;-72
2021/05/19 00:43:16;;;;;;;3.30;2.20;;;10.80;95.50;;;;;;2056005;28;20030;-72
2021/05/19 00:44:21;;;;;;;2.45;2.25;;;10.80;95.40;;;;;;2047407;29;20035;-71
2021/05/19 00:45:21;;;;;;;2.42;2.22;;;10.80;95.50;;;;;;2048206;28;20046;-72
2021/05/19 00:46:23;;;;;;;2.63;2.15;;;10.80;95.40;;;;;;2047174;29;20597;-72
2021/05/19 00:47:31;;;;;;;2.55;2.13;;;10.80;95.50;;;;;;2047271;28;20019;-71
2021/05/19 00:48:34;;;;;;;2.30;2.00;;;10.80;95.60;;;;;;2047411;29;20072;-72
2021/05/19 00:49:35;;;;;;;2.30;2.00;;;10.80;95.50;;;;;;2047690;28;20015;-72
2021/05/19 00:50:38;;;;;;;2.22;2.10;;;10.80;95.50;;;;;;2047297;29;20058;-72
2021/05/19 00:51:40;;;;;;;2.42;2.10;;;10.80;95.60;;;;;;2047378;29;20028;-71
2021/05/19 00:52:41;;;;;;;2.42;2.20;;;10.80;95.50;;;;;;2047449;28;20023;-71
2021/05/19 00:53:42;;;;;;;2.13;1.98;;;10.80;95.70;;;;;;2055946;28;20041;-71
2021/05/19 00:54:42;;;;;;;2.92;2.20;;;10.80;95.90;;;;;;2055929;28;20031;-72
2021/05/19 00:55:43;;;;;;;2.10;1.90;;;10.90;96.20;;;;;;2047416;29;20031;-71
2021/05/19 00:56:44;;;;;;;2.15;1.95;;;10.90;96.20;;;;;;2046906;28;20031;-71
2021/05/19 00:57:49;;;;;;;2.30;2.10;;;10.80;96.30;;;;;;2056515;28;20486;-72
2021/05/19 00:58:54;;;;;;;2.05;1.90;;;10.80;96.50;;;;;;2048846;29;20240;-72
2021/05/19 00:59:56;;;;;;;2.30;2.10;;;10.80;96.50;;;;;;2049048;29;20470;-72
2021/05/19 01:01:03;;;;;;;3.03;1.90;;;10.80;96.50;;;;;;2042433;29;20036;-71
2021/05/19 01:02:11;;;;;;;2.10;1.90;;;10.80;96.60;;;;;;2041850;29;20514;-71
2021/05/19 01:03:12;;;;;;;2.35;2.15;;;10.80;96.90;;;;;;2048907;29;20466;-71
2021/05/19 01:04:13;;;;;;;2.58;2.08;;;10.80;96.90;;;;;;2041227;29;20171;-71
2021/05/19 01:05:41;;;;;;;2.40;2.20;;;10.80;96.90;;;;;;2055123;28;20046;-71
2021/05/19 01:07:00;;;;;;;2.30;2.10;;;10.80;96.90;;;;;;2052439;28;20073;-71
2021/05/19 01:09:37;;;;;;;2.45;2.25;;;10.80;96.90;;;;;;2055077;28;20023;-71
2021/05/19 01:10:38;;;;;;;2.35;2.15;;;10.80;96.90;;;;;;2043970;29;20122;-71
2021/05/19 01:11:38;;;;;;;3.22;2.28;;;10.80;96.80;;;;;;2035572;29;20412;-71
2021/05/19 01:12:39;;;;;;;2.60;2.40;;;10.80;96.90;;;;;;2051329;29;20082;-71
2021/05/19 01:13:42;;;;;;;2.47;2.28;;;10.80;96.90;;;;;;2050710;29;20061;-70
2021/05/19 01:14:44;;;;;;;2.47;2.28;;;10.80;97.00;;;;;;2050557;28;20537;-71
2021/05/19 01:15:45;;;;;;;4.20;2.30;;;10.80;97.10;;;;;;2057266;28;20037;-70
2021/05/19 01:16:46;;;;;;;2.60;2.40;;;10.80;97.10;;;;;;2056994;28;20089;-71
2021/05/19 01:17:48;;;;;;;2.60;2.38;;;10.80;97.30;;;;;;2057371;28;20414;-71
2021/05/19 01:18:48;;;;;;;2.42;2.22;;;10.80;97.30;;;;;;2048736;29;20039;-71
2021/05/19 01:19:51;;;;;;;2.67;2.47;;;10.80;97.20;;;;;;2048821;29;20027;-71
2021/05/19 01:20:55;;;;;;;2.55;2.35;;;10.80;97.10;;;;;;2048778;29;20118;-71
2021/05/19 01:22:04;;;;;;;2.67;2.47;;;10.80;97.10;;;;;;2048773;29;20038;-71
2021/05/19 01:23:07;;;;;;;2.67;2.47;;;10.80;97.20;;;;;;2048765;29;20031;-71
2021/05/19 01:24:07;;;;;;;2.65;2.45;;;10.80;97.30;;;;;;2048970;28;20099;-71
2021/05/19 01:25:10;;;;;;;2.70;2.50;;;10.80;97.40;;;;;;2057292;28;20041;-71
2021/05/19 01:26:13;;;;;;;3.00;2.70;;;10.80;97.40;;;;;;2056990;28;20146;-71
2021/05/19 01:27:15;;;;;;;3.33;2.60;;;10.80;97.40;;;;;;2048664;28;20031;-71
2021/05/19 01:28:15;;;;;;;3.65;2.60;;;10.80;97.80;;;;;;2048590;29;20033;-71
2021/05/19 01:29:16;;;;;;;2.92;2.63;;;10.80;97.60;;;;;;2040798;29;20486;-71
2021/05/19 01:30:17;;;;;;;2.97;2.70;;;10.80;97.80;;;;;;2048817;28;20027;-71
2021/05/19 01:31:18;;;;;;;3.00;2.70;;;10.80;97.70;;;;;;2048656;29;20037;-71
2021/05/19 01:32:19;;;;;;;3.00;2.70;;;10.80;97.60;;;;;;2048621;29;20815;-71
2021/05/19 01:33:20;;;;;;;3.55;2.95;;;10.80;97.60;;;;;;2048784;29;20483;-72
2021/05/19 01:34:21;;;;;;;4.03;2.78;;;10.70;97.40;;;;;;2057462;28;20027;-71
2021/05/19 01:35:22;;;;;;;4.57;2.70;;;10.70;97.50;;;;;;2057272;28;20394;-71
2021/05/19 01:36:23;;;;;;;3.15;2.85;;;10.70;98.00;;;;;;2056696;28;20513;-71
2021/05/19 01:37:24;;;;;;;2.75;2.53;;;10.70;97.80;;;;;;2056962;28;20027;-71
2021/05/19 01:38:29;;;;;;;3.03;2.65;;;10.70;97.80;;;;;;2041152;29;20436;-71
2021/05/19 01:39:35;;;;;;;3.30;2.80;;;10.70;97.80;;;;;;2040653;29;20068;-71
2021/05/19 01:40:36;;;;;;;2.95;2.65;;;10.70;97.50;;;;;;2041220;29;20035;-71
2021/05/19 01:41:38;;;;;;;2.88;2.65;;;10.70;97.50;;;;;;2048674;28;20030;-71
2021/05/19 01:42:40;;;;;;;4.22;3.10;;;10.70;97.60;;;;;;2048600;29;20031;-71
2021/05/19 01:43:48;;;;;;;3.60;2.75;;;10.70;97.50;;;;;;2041791;29;20039;-71
2021/05/19 01:44:49;;;;;;;3.28;2.92;;;10.70;97.40;;;;;;2048672;29;20027;-71
2021/05/19 01:46:07;;;;;;;3.00;2.65;;;10.70;97.30;;;;;;2042447;29;20042;-71
2021/05/19 01:47:09;;;;;;;3.15;2.75;;;10.70;97.40;;;;;;2048532;28;20664;-71
2021/05/19 01:48:15;;;;;;;3.80;2.95;;;10.70;97.20;;;;;;2057122;28;20054;-71
2021/05/19 01:49:18;;;;;;;3.22;2.85;;;10.70;97.20;;;;;;2057099;28;20379;-71
2021/05/19 01:50:22;;;;;;;3.47;3.17;;;10.70;97.20;;;;;;2057149;28;20399;-71
2021/05/19 01:51:24;;;;;;;5.50;3.25;;;10.70;97.20;;;;;;2048529;29;20173;-71
2021/05/19 01:52:26;;;;;;;3.60;3.30;;;10.70;97.10;;;;;;2048410;29;20031;-71
2021/05/19 01:53:27;;;;;;;3.80;3.40;;;10.70;97.10;;;;;;2040649;29;20485;-71
2021/05/19 01:54:29;;;;;;;4.10;3.50;;;10.70;97.10;;;;;;2040575;29;20079;-71
2021/05/19 01:55:30;;;;;;;3.88;3.47;;;10.70;97.10;;;;;;2048552;28;20023;-71
2021/05/19 01:56:34;;;;;;;4.05;3.58;;;10.70;97.00;;;;;;2056655;28;20390;-71
2021/05/19 01:57:36;;;;;;;4.28;3.40;;;10.70;97.10;;;;;;2048399;29;20110;-71
2021/05/19 01:58:36;;;;;;;4.10;3.63;;;10.70;97.20;;;;;;2048462;29;20023;-71
2021/05/19 01:59:37;;;;;;;4.43;3.90;;;10.70;97.20;;;;;;2056992;28;20090;-71
2021/05/19 02:00:38;;;;;;;3.50;3.20;;;10.70;97.20;;;;;;2048288;29;20607;-71
2021/05/19 02:01:42;;;;;;;4.55;3.55;;;10.70;97.30;;;;;;2048441;29;20027;-71
2021/05/19 02:02:43;;;;;;;4.25;3.50;;;10.70;97.30;;;;;;2048357;29;20098;-71
2021/05/19 02:03:51;;;;;;;4.22;3.67;;;10.70;97.30;;;;;;2048803;29;20031;-71
2021/05/19 02:04:53;;;;;;;3.97;3.58;;;10.70;97.20;;;;;;2050891;29;20066;-71
2021/05/19 02:05:54;;;;;;;3.88;3.47;;;10.70;97.20;;;;;;2042766;29;20088;-71
2021/05/19 02:06:58;;;;;;;4.25;3.85;;;10.70;97.30;;;;;;2034543;29;20114;-71
2021/05/19 02:08:08;;;;;;;4.20;3.80;;;10.70;97.20;;;;;;2040415;29;20075;-71
2021/05/19 02:09:18;;;;;;;4.10;3.70;;;10.70;97.20;;;;;;2049318;28;20031;-71
2021/05/19 02:10:19;;;;;;;3.88;3.45;;;10.70;97.20;;;;;;2056074;28;20031;-71
2021/05/19 02:11:20;;;;;;;4.28;3.88;;;10.70;97.20;;;;;;2048528;28;20031;-71
2021/05/19 02:12:23;;;;;;;4.15;3.75;;;10.70;97.30;;;;;;2056916;28;20027;-71
2021/05/19 02:13:26;;;;;;;4.25;3.85;;;10.70;97.40;;;;;;2048162;29;20580;-71
2021/05/19 02:14:28;;;;;;;4.47;4.00;;;10.70;97.40;;;;;;2048192;29;20031;-71
2021/05/19 02:15:29;;;;;;;4.05;3.60;;;10.70;97.40;;;;;;2056414;28;20633;-71
2021/05/19 02:16:30;;;;;;;4.60;4.10;;;10.70;97.40;;;;;;2055896;28;20066;-71
2021/05/19 02:17:30;;;;;;;5.13;4.07;;;10.70;97.40;;;;;;2048251;29;20024;-71
2021/05/19 02:18:33;;;;;;;4.85;4.35;;;10.70;97.50;;;;;;2056857;28;20029;-71
2021/05/19 02:19:35;;;;;;;5.47;4.40;;;10.70;97.50;;;;;;2056851;28;20019;-71
2021/05/19 02:20:39;;;;;;;5.07;4.30;;;10.70;97.40;;;;;;2048273;29;20049;-71
2021/05/19 02:21:41;;;;;;;5.05;4.55;;;10.70;97.40;;;;;;2048145;29;20215;-70
2021/05/19 02:22:45;;;;;;;4.75;4.35;;;10.70;97.50;;;;;;2056501;28;20037;-71
2021/05/19 02:23:45;;;;;;;5.68;4.93;;;10.60;97.50;;;;;;2056134;28;20030;-71
2021/05/19 02:24:46;;;;;;;5.40;4.80;;;10.70;97.70;;;;;;2048211;29;20031;-71
2021/05/19 02:25:47;;;;;;;5.25;4.70;;;10.70;97.70;;;;;;2056201;28;20035;-71
2021/05/19 02:26:49;;;;;;;5.35;4.75;;;10.70;97.70;;;;;;2055928;28;20031;-71
2021/05/19 02:27:53;;;;;;;4.78;4.32;;;10.60;97.80;;;;;;2040711;29;20150;-71
2021/05/19 02:28:58;;;;;;;5.07;4.57;;;10.70;98.00;;;;;;2041024;29;20032;-71
2021/05/19 02:30:02;;;;;;;5.10;4.60;;;10.60;98.00;;;;;;2040409;29;20027;-71
2021/05/19 02:31:03;;;;;;;5.65;4.90;;;10.60;98.10;;;;;;2040491;29;20253;-71
2021/05/19 02:32:04;;;;;;;5.00;4.50;;;10.60;98.20;;;;;;2048145;29;20039;-71
2021/05/19 02:33:11;;;;;;;4.57;4.18;;;10.60;98.20;;;;;;2048134;29;20063;-71
2021/05/19 02:34:13;;;;;;;5.13;4.63;;;10.50;98.30;;;;;;2041174;29;20035;-71
2021/05/19 02:35:16;;;;;;;5.15;4.65;;;10.60;98.40;;;;;;2040478;29;20030;-71
2021/05/19 02:36:20;;;;;;;5.05;4.57;;;10.60;98.50;;;;;;2040278;29;20126;-71
2021/05/19 02:37:21;;;;;;;5.70;4.60;;;10.60;98.50;;;;;;2040309;29;20054;-71
2021/05/19 02:38:21;;;;;;;4.70;4.28;;;10.50;98.60;;;;;;2048229;28;20027;-71
2021/05/19 02:39:22;;;;;;;5.32;4.40;;;10.60;98.70;;;;;;2056239;28;20055;-71
2021/05/19 02:40:30;;;;;;;5.40;4.60;;;10.60;98.70;;;;;;2048131;29;20115;-71
2021/05/19 02:41:31;;;;;;;4.95;4.45;;;10.60;98.80;;;;;;2048550;28;20023;-71
2021/05/19 02:42:32;;;;;;;4.70;4.28;;;10.50;98.80;;;;;;2040144;29;20126;-71
2021/05/19 02:43:33;;;;;;;4.65;4.18;;;10.60;98.80;;;;;;2032400;29;20028;-71
2021/05/19 02:44:34;;;;;;;5.05;4.50;;;10.50;98.80;;;;;;2040249;29;20024;-71
2021/05/19 02:45:34;;;;;;;4.90;4.40;;;10.60;98.90;;;;;;2040314;29;20039;-71
2021/05/19 02:46:36;;;;;;;4.90;4.35;;;10.50;98.90;;;;;;2047695;28;20034;-71
2021/05/19 02:47:37;;;;;;;5.78;5.05;;;10.60;98.80;;;;;;2056629;28;20081;-71
2021/05/19 02:48:37;;;;;;;5.70;4.60;;;10.50;98.70;;;;;;2047962;29;20039;-71
2021/05/19 02:49:38;;;;;;;5.63;5.00;;;10.50;98.90;;;;;;2040164;29;20032;-71
2021/05/19 02:50:39;;;;;;;5.03;4.55;;;10.50;99.00;;;;;;2048052;28;20027;-70
2021/05/19 02:51:40;;;;;;;4.95;4.45;;;10.50;99.00;;;;;;2056487;28;20137;-70
2021/05/19 02:52:40;;;;;;;5.28;4.30;;;10.50;99.10;;;;;;2056482;28;20050;-70
2021/05/19 02:53:41;;;;;;;5.00;4.50;;;10.60;99.00;;;;;;2056545;28;20368;-70
2021/05/19 02:54:42;;;;;;;6.20;4.75;;;10.50;99.00;;;;;;2048046;29;20051;-71
2021/05/19 02:55:43;;;;;;;5.10;4.60;;;10.50;99.00;;;;;;2047968;29;20487;-71
2021/05/19 02:56:43;;;;;;;5.07;4.57;;;10.50;98.90;;;;;;2056009;28;20413;-71
2021/05/19 02:57:44;;;;;;;5.18;4.68;;;10.50;98.80;;;;;;2056549;28;20038;-71
2021/05/19 02:58:45;;;;;;;5.10;4.60;;;10.50;98.80;;;;;;2056497;28;20066;-71
2021/05/19 02:59:45;;;;;;;5.10;4.60;;;10.50;98.70;;;;;;2056505;28;20030;-71
2021/05/19 03:00:46;;;;;;;5.70;4.90;;;10.50;98.80;;;;;;2056572;28;20696;-71
2021/05/19 03:01:47;;;;;;;5.30;4.80;;;10.50;98.90;;;;;;2056545;28;20034;-71
2021/05/19 03:02:47;;;;;;;4.88;4.38;;;10.40;98.90;;;;;;2048125;29;20023;-71
2021/05/19 03:03:48;;;;;;;6.03;4.53;;;10.40;99.00;;;;;;2040078;29;20143;-71
2021/05/19 03:04:49;;;;;;;4.85;4.43;;;10.40;99.00;;;;;;2048049;29;20027;-71
2021/05/19 03:05:50;;;;;;;5.15;4.70;;;10.40;99.00;;;;;;2056517;28;20141;-71
2021/05/19 03:06:50;;;;;;;5.70;5.10;;;10.40;99.10;;;;;;2056008;28;20068;-71
2021/05/19 03:07:51;;;;;;;5.70;5.10;;;10.40;99.10;;;;;;2056407;28;20027;-70
2021/05/19 03:08:52;;;;;;;5.30;4.75;;;10.40;99.00;;;;;;2056291;28;20505;-71
2021/05/19 03:09:53;;;;;;;5.57;5.07;;;10.40;99.00;;;;;;2056550;28;20035;-71
2021/05/19 03:10:53;;;;;;;6.20;5.22;;;10.40;99.00;;;;;;2056618;28;20035;-70
2021/05/19 03:11:54;;;;;;;5.95;5.00;;;10.40;99.10;;;;;;2056461;28;20445;-70
2021/05/19 03:12:55;;;;;;;5.47;4.93;;;10.40;99.10;;;;;;2056344;28;20038;-70
2021/05/19 03:13:56;;;;;;;6.68;5.13;;;10.40;99.00;;;;;;2056462;28;20106;-70
2021/05/19 03:14:57;;;;;;;5.50;5.00;;;10.40;99.10;;;;;;2056444;28;20031;-71
2021/05/19 03:15:57;;;;;;;6.13;5.40;;;10.40;99.10;;;;;;2056227;28;20026;-70
2021/05/19 03:17:01;;;;;;;5.45;4.95;;;10.40;99.10;;;;;;2056387;28;20035;-71
2021/05/19 03:18:02;;;;;;;5.30;4.78;;;10.40;99.20;;;;;;2056545;28;20030;-71
2021/05/19 03:19:06;;;;;;;6.50;5.13;;;10.40;99.20;;;;;;2056485;28;20125;-70
2021/05/19 03:20:08;;;;;;;5.90;5.30;;;10.40;99.10;;;;;;2047732;29;20106;-70
2021/05/19 03:21:08;;;;;;;5.32;4.82;;;10.40;99.00;;;;;;2047795;28;20027;-71
2021/05/19 03:22:10;;;;;;;6.00;5.40;;;10.40;99.00;;;;;;2047911;28;20670;-70
2021/05/19 03:23:10;;;;;;;5.97;5.38;;;10.40;99.10;;;;;;2056373;28;20499;-70
2021/05/19 03:24:11;;;;;;;6.22;5.55;;;10.40;99.10;;;;;;2056411;28;20138;-71
2021/05/19 03:25:12;;;;;;;6.25;5.38;;;10.40;99.20;;;;;;2056326;28;20042;-70
2021/05/19 03:26:13;;;;;;;5.97;5.38;;;10.40;99.20;;;;;;2055996;28;20270;-70
2021/05/19 03:27:13;;;;;;;5.68;5.03;;;10.40;99.20;;;;;;2047681;28;20456;-71
2021/05/19 03:28:14;;;;;;;6.93;5.22;;;10.40;99.20;;;;;;2047750;28;20063;-70
2021/05/19 03:29:15;;;;;;;6.18;5.15;;;10.50;99.30;;;;;;2047669;29;20031;-71
2021/05/19 03:30:16;;;;;;;5.68;5.07;;;10.50;99.20;;;;;;2039782;29;20047;-71
2021/05/19 03:31:18;;;;;;;6.15;5.28;;;10.50;99.20;;;;;;2047800;28;20027;-71
2021/05/19 03:32:19;;;;;;;6.55;5.75;;;10.50;99.10;;;;;;2056194;28;20042;-71
2021/05/19 03:33:20;;;;;;;6.10;5.50;;;10.50;99.10;;;;;;2056301;28;20130;-71
2021/05/19 03:34:23;;;;;;;6.78;6.07;;;10.50;99.00;;;;;;2056331;28;20062;-70
2021/05/19 03:35:24;;;;;;;6.90;6.20;;;10.50;98.90;;;;;;2056373;28;20077;-71
2021/05/19 03:36:24;;;;;;;6.60;5.90;;;10.50;99.00;;;;;;2055882;28;20089;-71
2021/05/19 03:37:25;;;;;;;6.43;5.72;;;10.50;98.90;;;;;;2047635;28;20024;-71
2021/05/19 03:38:26;;;;;;;6.32;5.70;;;10.60;98.90;;;;;;2047672;29;20106;-70
2021/05/19 03:39:27;;;;;;;6.10;5.30;;;10.60;98.90;;;;;;2056229;28;20019;-70
2021/05/19 03:40:28;;;;;;;5.78;5.18;;;10.60;98.90;;;;;;2056194;28;20030;-71
2021/05/19 03:41:29;;;;;;;5.47;4.97;;;10.60;98.80;;;;;;2056194;28;20039;-71
2021/05/19 03:42:29;;;;;;;5.82;5.20;;;10.60;98.70;;;;;;2056291;28;20019;-71
2021/05/19 03:43:30;;;;;;;6.55;5.72;;;10.60;98.60;;;;;;2056202;28;20526;-71
2021/05/19 03:44:32;;;;;;;7.00;5.68;;;10.60;98.50;;;;;;2056182;28;20113;-71
2021/05/19 03:45:32;;;;;;;7.38;5.97;;;10.70;98.50;;;;;;2056213;28;20097;-71
2021/05/19 03:46:33;;;;;;;6.25;5.43;;;10.70;98.50;;;;;;2055903;28;20027;-71
2021/05/19 03:47:34;;;;;;;7.40;5.60;;;10.70;98.40;;;;;;2047555;28;20035;-71
2021/05/19 03:48:34;;;;;;;7.40;5.80;;;10.70;98.40;;;;;;2047565;29;20503;-71
2021/05/19 03:49:38;;;;;;;6.03;5.43;;;10.70;98.30;;;;;;2047648;29;20023;-71
2021/05/19 03:50:40;;;;;;;6.03;5.20;;;10.80;98.30;;;;;;2047517;29;20035;-71
2021/05/19 03:51:40;;;;;;;6.03;5.35;;;10.80;98.30;;;;;;2047737;28;20027;-72
2021/05/19 03:52:41;;;;;;;6.40;5.80;;;10.80;98.20;;;;;;2039647;29;20110;-71
2021/05/19 03:53:42;;;;;;;6.30;5.70;;;10.80;98.10;;;;;;2039647;29;20138;-71
2021/05/19 03:54:43;;;;;;;6.82;5.75;;;10.80;98.10;;;;;;2056078;28;20035;-71
2021/05/19 03:55:45;;;;;;;7.55;5.50;;;10.90;98.10;;;;;;2056738;28;20046;-72
2021/05/19 03:56:49;;;;;;;6.63;5.53;;;10.90;98.10;;;;;;2047517;28;20034;-72
2021/05/19 03:57:50;;;;;;;6.93;5.70;;;10.90;98.00;;;;;;2047806;29;20040;-72
2021/05/19 03:58:50;;;;;;;6.88;5.68;;;10.90;97.90;;;;;;2047576;29;20510;-72
2021/05/19 03:59:51;;;;;;;6.15;5.55;;;11.00;97.80;;;;;;2056145;28;20380;-72
2021/05/19 04:00:52;;;;;;;6.57;5.88;;;11.00;97.90;;;;;;2056189;28;20116;-72
2021/05/19 04:01:53;;;;;;;6.43;5.38;;;11.10;97.90;;;;;;2056153;28;20023;-71
2021/05/19 04:02:53;;;;;;;5.90;5.30;;;11.10;97.70;;;;;;2047512;29;20463;-72
2021/05/19 04:03:54;;;;;;;7.50;5.97;;;11.20;97.70;;;;;;2047566;28;20109;-71
2021/05/19 04:04:55;;;;;;;7.00;6.25;;;11.20;97.20;;;;;;2039607;29;20047;-72
2021/05/19 04:05:55;;;;;;;7.13;6.38;;;11.30;97.20;;;;;;2039309;29;20036;-71
2021/05/19 04:06:56;;;;;;;7.50;6.22;;;11.30;96.80;;;;;;2055936;28;20031;-72
2021/05/19 04:07:57;;;;;;;8.10;6.40;;;11.40;96.70;;;;;;2056029;28;20031;-72
2021/05/19 04:08:57;;;;;;;6.90;5.97;;;11.40;96.60;;;;;;2055991;28;20053;-71
2021/05/19 04:09:58;;;;;;;7.82;6.57;;;11.50;96.60;;;;;;2056269;28;20498;-71
2021/05/19 04:10:58;;;;;;;7.30;6.30;;;11.70;96.40;;;;;;2047563;29;20039;-72
2021/05/19 04:11:59;;;;;;;7.88;6.20;;;11.80;95.80;;;;;;2047749;29;20035;-71
2021/05/19 04:13:03;;;;;;;8.85;6.68;;;11.90;95.40;;;;;;2039649;29;20519;-72
2021/05/19 04:14:04;;;;;;;7.80;6.95;;;11.90;95.10;;;;;;2047913;28;20031;-71
2021/05/19 04:15:06;;;;;;;8.05;6.70;;;11.90;94.80;;;;;;2047330;29;20503;-72
2021/05/19 04:16:07;;;;;;;8.00;6.75;;;11.90;94.80;;;;;;2047410;28;20015;-72
2021/05/19 04:17:08;;;;;;;7.85;7.05;;;11.90;94.90;;;;;;2055995;28;20513;-71
2021/05/19 04:18:09;;;;;;;11.90;8.07;;;11.80;94.90;;;;;;2056029;28;20043;-71
2021/05/19 04:19:09;;;;;;;9.93;8.20;;;11.80;94.90;;;;;;2056028;28;20027;-71
2021/05/19 04:20:11;;;;;;;9.43;7.25;;;11.70;95.20;;;;;;2056027;28;20118;-71
2021/05/19 04:21:12;;;;;;;9.23;7.75;;;11.60;95.30;;;;;;2056058;28;20033;-72
2021/05/19 04:22:12;;;;;;;9.32;8.27;;;11.60;95.40;;;;;;2056106;28;20490;-72
2021/05/19 04:23:13;;;;;;;8.50;7.60;;;11.50;95.60;;;;;;2056078;28;20046;-72
2021/05/19 04:24:14;;;;;;;8.15;7.15;;;11.50;95.70;;;;;;2056053;28;20022;-71
2021/05/19 04:25:15;;;;;;;10.90;8.27;;;11.50;95.80;;;;;;2056320;28;20047;-72
2021/05/19 04:26:16;;;;;;;8.55;7.50;;;11.50;95.80;;;;;;2055944;28;20023;-72
2021/05/19 04:27:16;;;;;;;7.88;7.07;;;11.50;95.90;;;;;;2048118;28;20106;-72
2021/05/19 04:28:17;;;;;;;8.52;7.40;;;11.50;96.00;;;;;;2047489;29;20104;-71
2021/05/19 04:29:21;;;;;;;9.32;8.05;;;11.50;96.00;;;;;;2047505;29;20046;-71
2021/05/19 04:30:21;;;;;;;9.95;7.75;;;11.40;95.90;;;;;;2047515;29;20035;-71
2021/05/19 04:31:22;;;;;;;9.00;7.80;;;11.50;96.00;;;;;;2047553;29;20400;-71
2021/05/19 04:32:23;;;;;;;9.15;7.97;;;11.40;96.00;;;;;;2047286;28;20122;-71
2021/05/19 04:33:23;;;;;;;8.38;7.50;;;11.40;96.10;;;;;;2049133;29;20031;-71
2021/05/19 04:34:24;;;;;;;7.65;6.85;;;11.40;96.10;;;;;;2057632;28;20398;-71
2021/05/19 04:35:24;;;;;;;8.63;7.43;;;11.40;96.00;;;;;;2057619;28;20034;-71
2021/05/19 04:36:26;;;;;;;9.18;6.97;;;11.40;96.10;;;;;;2057087;28;20469;-71
2021/05/19 04:37:26;;;;;;;8.15;7.30;;;11.40;96.00;;;;;;2048911;28;20403;-71
2021/05/19 04:38:27;;;;;;;7.80;7.00;;;11.40;95.90;;;;;;2048929;29;20030;-71
2021/05/19 04:39:27;;;;;;;9.77;7.38;;;11.40;96.00;;;;;;2057661;28;20026;-71
2021/05/19 04:40:29;;;;;;;8.05;6.97;;;11.40;96.30;;;;;;2057683;28;20557;-71
2021/05/19 04:41:29;;;;;;;8.10;7.18;;;11.50;96.10;;;;;;2049177;29;20110;-71
2021/05/19 04:42:30;;;;;;;8.00;7.20;;;11.40;95.90;;;;;;2049127;29;20023;-71
2021/05/19 04:43:31;;;;;;;8.90;7.60;;;11.50;96.00;;;;;;2057654;28;20376;-71
2021/05/19 04:44:32;;;;;;;8.10;6.85;;;11.50;96.10;;;;;;2057822;28;20049;-70
2021/05/19 04:45:32;;;;;;;11.07;7.75;;;11.50;96.10;;;;;;2057680;28;20114;-69
2021/05/19 04:46:33;;;;;;;9.35;8.35;;;11.50;96.10;;;;;;2057226;28;20491;-69
2021/05/19 04:47:34;;;;;;;11.93;9.02;;;11.50;95.90;;;;;;2057681;28;20049;-70
2021/05/19 04:48:35;;;;;;;9.13;7.85;;;11.50;95.90;;;;;;2049064;29;20538;-70
2021/05/19 04:49:35;;;;;;;10.57;8.75;;;11.50;96.10;;;;;;2049093;29;20023;-70
2021/05/19 04:50:37;;;;;;;8.68;7.63;;;11.60;96.10;;;;;;2057638;28;20506;-70
2021/05/19 04:51:37;;;;;;;8.52;7.55;;;11.60;96.10;;;;;;2057602;28;20491;-72
2021/05/19 04:52:38;;;;;;;10.43;7.97;;;11.60;96.10;;;;;;2048860;29;20066;-71
2021/05/19 04:53:38;;;;;;;9.68;8.57;;;11.60;96.40;;;;;;2048935;29;20019;-71
2021/05/19 04:54:39;;;;;;;12.55;9.77;;;11.60;96.00;;;;;;2041119;29;20472;-70
2021/05/19 04:55:40;;;;;;;12.73;10.10;;;11.60;95.60;;;;;;2041126;29;20106;-71
2021/05/19 04:56:40;;;;;;;11.15;9.80;;;11.50;95.60;;;;;;2048694;28;20368;-72
2021/05/19 04:57:42;;;;;;;10.52;8.60;;;11.50;95.80;;;;;;2057474;28;20118;-71
2021/05/19 04:58:43;;;;;;;11.45;9.20;;;11.50;96.00;;;;;;2057472;28;20038;-70
2021/05/19 04:59:44;;;;;;;14.13;10.77;;;11.50;96.10;;;;;;2057570;28;20050;-71
2021/05/19 05:00:44;;;;;;;12.73;10.32;;;11.50;95.80;;;;;;2057796;28;20027;-72
2021/05/19 05:01:45;;;;;;;10.40;8.85;;;11.50;95.90;;;;;;2048842;29;20470;-69
2021/05/19 05:02:46;;;;;;;9.77;8.48;;;11.50;96.00;;;;;;2048731;28;20058;-71
2021/05/19 05:03:46;;;;;;;10.75;9.15;;;11.50;96.00;;;;;;2057300;28;20490;-71
2021/05/19 05:04:47;;;;;;;10.85;9.60;;;11.50;96.00;;;;;;2048852;29;20086;-71
2021/05/19 05:05:51;;;;;;;12.40;10.57;;;11.50;95.90;;;;;;2048899;29;20432;-71
2021/05/19 05:06:51;;;;;;;12.15;9.77;;;11.50;95.80;;;;;;2048386;28;20038;-72
2021/05/19 05:07:52;;;;;;;10.82;9.38;;;11.50;95.80;;;;;;2048827;29;20047;-72
2021/05/19 05:08:53;;;;;;;11.65;8.98;;;11.50;95.80;;;;;;2048560;29;20059;-72
2021/05/19 05:09:55;;;;;;;10.38;9.18;;;11.50;95.90;;;;;;2048821;29;20035;-71
2021/05/19 05:10:56;;;;;;;10.60;9.38;;;11.50;96.00;;;;;;2057464;28;20384;-72
2021/05/19 05:11:57;;;;;;;10.57;9.13;;;11.60;96.30;;;;;;2057613;28;20034;-72
2021/05/19 05:12:58;;;;;;;11.80;9.88;;;11.60;96.10;;;;;;2048780;29;20147;-72
2021/05/19 05:13:58;;;;;;;12.48;10.55;;;11.60;96.20;;;;;;2048786;29;20039;-71
2021/05/19 05:14:59;;;;;;;11.48;9.40;;;11.60;95.70;;;;;;2048860;29;20036;-71
2021/05/19 05:16:00;;;;;;;10.43;8.55;;;11.70;95.80;;;;;;2056891;28;20031;-71
2021/05/19 05:17:00;;;;;;;14.40;10.60;;;11.70;95.90;;;;;;2057208;28;20045;-71
2021/05/19 05:18:01;;;;;;;14.18;10.82;;;11.70;95.70;;;;;;2048708;29;20027;-71
2021/05/19 05:19:02;;;;;;;13.75;10.50;;;11.70;95.70;;;;;;2048951;29;20532;-70
2021/05/19 05:20:05;;;;;;;15.60;11.00;;;11.70;95.90;;;;;;2048752;29;20034;-72
2021/05/19 05:21:06;;;;;;;13.52;10.55;;;11.70;95.70;;;;;;2049285;28;20902;-70
2021/05/19 05:22:08;;;;;;;11.38;9.20;;;11.70;95.40;;;;;;2048800;29;20574;-71